Time;durP1;ratioP1;P1;durP2;ratioP2;P2;SDS_P1;SDS_P2;PMS_P1;PMS_P2;Temp;Humidity;BMP_temperature;BMP_pressure;BME280_temperature;BME280_humidity;BME280_pressure;Samples;Min_cycle;Max_cycle;Signal;HPM_P1;HPM_P2
2023/01/30 00:00:55;;;;;;;0.90;0.90;;;;;;;3.02;100.00;97201.63;4985201;28;20057;-58
2023/01/30 00:03:23;;;;;;;0.88;0.88;;;;;;;2.86;100.00;97175.88;4985432;28;20541;-56
2023/01/30 00:05:50;;;;;;;0.40;0.40;;;;;;;3.02;100.00;97196.16;4985010;28;20046;-55
2023/01/30 00:08:17;;;;;;;0.82;0.82;;;;;;;2.70;100.00;97148.13;4985346;28;20077;-59
2023/01/30 00:10:45;;;;;;;4.70;1.70;;;;;;;3.06;100.00;97197.97;4985140;28;20464;-59
2023/01/30 00:13:15;;;;;;;0.30;0.30;;;;;;;3.08;100.00;97194.91;4985645;28;20057;-58
2023/01/30 00:15:42;;;;;;;2.47;2.30;;;;;;;3.20;100.00;97192.34;4985422;28;20050;-56
2023/01/30 00:18:09;;;;;;;0.40;0.40;;;;;;;3.14;100.00;97199.09;4983772;28;20513;-58
2023/01/30 00:20:36;;;;;;;0.40;0.40;;;;;;;3.19;100.00;97196.22;4985076;28;20407;-56
2023/01/30 00:23:03;;;;;;;3.28;2.95;;;;;;;3.05;98.66;97170.94;4985107;28;20061;-56
2023/01/30 00:25:30;;;;;;;0.40;0.40;;;;;;;3.17;97.66;97193.00;4985004;28;20536;-58
2023/01/30 00:28:00;;;;;;;2.15;2.05;;;;;;;3.04;95.47;97163.81;4985126;28;20529;-56
2023/01/30 00:30:28;;;;;;;1.63;1.55;;;;;;;2.80;92.71;97149.75;4985506;28;20054;-56
2023/01/30 00:32:56;;;;;;;0.68;0.68;;;;;;;3.19;90.78;97196.22;4984929;28;20057;-56
2023/01/30 00:35:27;;;;;;;0.50;0.50;;;;;;;2.26;88.62;97062.78;4984950;28;20078;-58
2023/01/30 00:37:58;;;;;;;0.40;0.40;;;;;;;3.25;89.24;97194.94;4983403;28;20058;-56
2023/01/30 00:40:26;;;;;;;0.40;0.40;;;;;;;3.26;88.01;97195.75;4984895;28;20112;-58
2023/01/30 00:48:27;;;;;;;0.50;0.50;;;;;;;3.22;86.29;97183.81;4984789;28;20120;-57
2023/01/30 00:50:54;;;;;;;0.60;0.60;;;;;;;2.69;83.34;97151.19;4984809;28;20475;-56
2023/01/30 00:53:21;;;;;;;1.58;1.58;;;;;;;3.02;82.22;97186.03;4984483;28;20105;-58
2023/01/30 00:55:50;;;;;;;1.30;1.20;;;;;;;2.80;81.99;97188.88;4984363;28;20054;-59
2023/01/30 00:58:17;;;;;;;1.30;1.00;;;;;;;2.89;82.74;97183.44;4984576;28;20057;-57
2023/01/30 01:00:44;;;;;;;2.50;2.30;;;;;;;2.85;82.74;97179.69;4983335;28;20054;-58
2023/01/30 01:03:10;;;;;;;0.43;0.43;;;;;;;2.54;83.64;97148.88;4984560;28;20437;-57
2023/01/30 01:05:37;;;;;;;0.60;0.60;;;;;;;2.78;82.57;97179.38;4984428;28;20058;-55
2023/01/30 01:08:04;;;;;;;3.00;1.65;;;;;;;2.91;84.96;97179.25;4984609;28;20477;-58
2023/01/30 01:10:31;;;;;;;2.95;1.23;;;;;;;2.86;83.45;97175.88;4984404;28;20090;-57
2023/01/30 01:12:58;;;;;;;1.05;1.05;;;;;;;2.53;84.12;97120.72;4984794;28;20742;-57
2023/01/30 01:15:25;;;;;;;0.40;0.40;;;;;;;2.97;84.82;97177.19;4984741;28;20073;-56
2023/01/30 01:17:53;;;;;;;0.40;0.40;;;;;;;2.52;84.84;97110.13;4984646;28;20407;-56
2023/01/30 01:20:21;;;;;;;0.82;0.82;;;;;;;3.01;85.19;97169.94;4984410;28;20050;-58
2023/01/30 01:22:51;;;;;;;0.32;0.32;;;;;;;1.42;85.57;96950.97;4984465;28;20192;-56
2023/01/30 01:25:18;;;;;;;0.50;0.50;;;;;;;2.74;85.31;97112.75;4984630;28;20065;-56
2023/01/30 01:27:45;;;;;;;0.50;0.50;;;;;;;3.15;85.38;97167.88;4984416;28;20065;-56
2023/01/30 01:30:13;;;;;;;0.40;0.40;;;;;;;3.07;86.11;97163.19;4984587;28;20065;-57
2023/01/30 01:32:39;;;;;;;4.38;1.38;;;;;;;3.15;86.71;97162.38;4984123;28;20058;-57
2023/01/30 01:35:06;;;;;;;0.40;0.40;;;;;;;2.67;86.21;97101.50;4984413;28;20141;-58
2023/01/30 01:37:33;;;;;;;1.48;1.38;;;;;;;3.13;87.64;97152.91;4983859;28;20141;-57
2023/01/30 01:42:45;;;;;;;1.05;1.05;;;;;;;2.40;89.42;97071.66;4983793;28;20065;-57
2023/01/30 01:45:23;;;;;;;0.40;0.40;;;;;;;2.94;89.64;97145.00;4997793;28;20092;-57
2023/01/30 01:48:03;;;;;;;3.28;1.42;;;;;;;2.90;90.19;97138.53;5002360;28;20088;-56
2023/01/30 01:50:52;;;;;;;0.40;0.40;;;;;;;2.19;91.07;97014.06;5003731;28;20061;-57
2023/01/30 01:53:24;;;;;;;0.50;0.50;;;;;;;2.67;90.89;97109.69;5007386;28;20370;-58
2023/01/30 01:55:54;;;;;;;0.80;0.80;;;;;;;2.85;91.57;97135.94;4993730;28;20062;-58
2023/01/30 01:58:46;;;;;;;1.33;1.23;;;;;;;0.71;91.30;96793.09;4987511;28;20050;-57
2023/01/30 02:01:13;;;;;;;2.30;1.38;;;;;;;2.84;89.76;97123.41;4987403;28;20100;-58
2023/01/30 02:03:46;;;;;;;0.40;0.40;;;;;;;3.05;89.00;97151.78;4987281;28;20058;-58
2023/01/30 02:06:14;;;;;;;0.82;0.73;;;;;;;3.11;90.53;97134.06;4987421;28;20113;-56
2023/01/30 02:08:46;;;;;;;0.40;0.40;;;;;;;-0.52;90.62;96551.94;4985917;28;20136;-56
2023/01/30 02:11:17;;;;;;;0.70;0.70;;;;;;;2.89;91.22;97095.91;4987649;28;20074;-58
2023/01/30 02:13:49;;;;;;;0.40;0.40;;;;;;;3.06;92.26;97134.22;4987599;28;20094;-57
2023/01/30 02:16:16;;;;;;;0.43;0.43;;;;;;;3.03;92.58;97132.13;4987308;28;20054;-56
2023/01/30 02:18:46;;;;;;;0.50;0.50;;;;;;;2.94;93.46;97120.38;4987075;28;20058;-56
2023/01/30 02:21:49;;;;;;;0.47;0.47;;;;;;;3.03;94.05;97110.25;4987507;28;20411;-56
2023/01/30 02:24:43;;;;;;;1.15;1.15;;;;;;;3.07;93.41;97116.66;4987579;28;20085;-59
2023/01/30 02:27:26;;;;;;;0.65;0.65;;;;;;;2.90;94.23;97089.28;4985816;28;20068;-57
2023/01/30 02:30:37;;;;;;;0.40;0.40;;;;;;;2.90;94.90;97086.56;4986789;28;20096;-58
2023/01/30 02:33:23;;;;;;;2.80;1.85;;;;;;;3.00;93.71;97108.94;4991019;28;20113;-55
2023/01/30 02:36:02;;;;;;;2.35;2.25;;;;;;;2.97;94.11;97108.78;4986630;28;20108;-56
2023/01/30 02:38:28;;;;;;;2.38;0.93;;;;;;;3.02;94.19;97103.94;4986897;28;20085;-57
2023/01/30 02:41:04;;;;;;;0.98;0.75;;;;;;;3.04;93.03;97100.91;4986624;28;20113;-57
2023/01/30 02:43:56;;;;;;;0.40;0.40;;;;;;;3.00;93.60;97105.41;4985676;28;20144;-58
2023/01/30 02:46:31;;;;;;;1.95;1.85;;;;;;;3.01;93.04;97109.75;4980489;28;20089;-58
2023/01/30 02:49:17;;;;;;;0.35;0.35;;;;;;;2.99;93.37;97099.13;4986781;28;20077;-57
2023/01/30 02:51:48;;;;;;;0.60;0.60;;;;;;;3.04;92.64;97095.41;4981203;28;20058;-56
2023/01/30 02:54:15;;;;;;;0.50;0.50;;;;;;;2.96;93.26;97115.38;4985347;28;20085;-55
2023/01/30 02:56:48;;;;;;;2.85;2.75;;;;;;;2.78;93.21;97069.97;4986073;28;20054;-58
2023/01/30 02:59:21;;;;;;;0.40;0.40;;;;;;;3.01;93.39;97107.00;4986416;28;20046;-58
2023/01/30 03:02:06;;;;;;;0.40;0.40;;;;;;;2.94;93.10;97095.75;4986096;28;20054;-58
2023/01/30 03:04:51;;;;;;;0.40;0.40;;;;;;;3.04;93.67;97095.41;4984716;28;20477;-58
2023/01/30 03:07:26;;;;;;;0.40;0.40;;;;;;;3.03;93.49;97099.28;4986219;28;20054;-56
2023/01/30 03:10:08;;;;;;;0.73;0.65;;;;;;;3.16;92.74;97095.59;4986300;28;20050;-58
2023/01/30 03:12:50;;;;;;;0.40;0.40;;;;;;;3.14;91.51;97100.59;4986410;28;20331;-56
2023/01/30 03:15:32;;;;;;;1.00;1.00;;;;;;;3.18;91.11;97096.06;4986219;28;20145;-56
2023/01/30 03:18:00;;;;;;;0.40;0.40;;;;;;;3.03;91.78;97080.94;4986326;28;20132;-58
2023/01/30 03:20:27;;;;;;;4.68;2.05;;;;;;;3.11;91.20;97103.97;4986053;28;20058;-56
2023/01/30 03:22:54;;;;;;;0.50;0.50;;;;;;;2.74;90.95;97044.38;4985829;28;20513;-58
2023/01/30 03:25:25;;;;;;;0.40;0.40;;;;;;;2.97;91.35;97082.22;4986297;28;20547;-56
2023/01/30 03:27:54;;;;;;;0.40;0.40;;;;;;;2.96;91.96;97080.63;4986382;28;20052;-58
2023/01/30 03:30:23;;;;;;;0.40;0.40;;;;;;;3.10;91.94;97105.06;4985800;28;20066;-55
2023/01/30 03:32:50;;;;;;;0.98;0.98;;;;;;;3.11;92.25;97101.22;4984620;28;20062;-58
2023/01/30 03:35:16;;;;;;;2.20;1.65;;;;;;;2.76;92.96;97099.56;4985248;28;20081;-58
2023/01/30 03:37:44;;;;;;;9.73;2.95;;;;;;;2.31;96.43;97098.16;4986070;28;20054;-58
2023/01/30 03:40:13;;;;;;;0.40;0.40;;;;;;;2.56;97.43;97100.97;4985611;28;20414;-57
2023/01/30 03:42:40;;;;;;;0.30;0.30;;;;;;;2.61;96.98;97105.47;4985460;28;20074;-58
2023/01/30 03:45:08;;;;;;;2.17;2.08;;;;;;;2.74;97.49;97101.81;4992830;28;20532;-58
2023/01/30 03:47:35;;;;;;;1.13;0.95;;;;;;;2.36;97.37;97035.13;5003955;28;20132;-58
2023/01/30 03:50:02;;;;;;;0.40;0.40;;;;;;;2.79;97.62;97099.75;5005198;28;20045;-58
2023/01/30 03:52:28;;;;;;;0.40;0.40;;;;;;;2.85;96.99;97103.13;5004911;28;20046;-56
2023/01/30 03:54:55;;;;;;;0.40;0.40;;;;;;;2.89;96.71;97096.69;5004821;28;20122;-58
2023/01/30 03:57:21;;;;;;;0.40;0.40;;;;;;;2.65;96.35;97059.97;5005206;28;20054;-56
2023/01/30 03:59:48;;;;;;;0.80;0.80;;;;;;;2.92;96.22;97098.00;5003854;28;20347;-58
2023/01/30 04:02:19;;;;;;;1.45;1.45;;;;;;;3.00;96.25;97089.00;5004673;28;20520;-56
2023/01/30 04:04:46;;;;;;;0.98;0.98;;;;;;;3.02;95.63;97086.72;5004657;28;20050;-57
2023/01/30 04:07:12;;;;;;;0.50;0.50;;;;;;;2.94;95.61;97085.59;5003258;28;20662;-54
2023/01/30 04:09:39;;;;;;;0.60;0.60;;;;;;;2.90;96.46;97089.28;5003442;28;20100;-56
2023/01/30 04:12:06;;;;;;;0.40;0.40;;;;;;;2.74;96.75;97074.47;5005290;28;20615;-54
2023/01/30 04:14:33;;;;;;;0.90;0.90;;;;;;;2.73;97.66;97081.06;5003238;28;20061;-54
2023/01/30 04:16:59;;;;;;;0.40;0.40;;;;;;;2.76;97.12;97083.97;5004766;28;20128;-55
2023/01/30 04:19:26;;;;;;;0.50;0.50;;;;;;;2.66;96.96;97061.56;5004758;28;20065;-56
2023/01/30 04:21:52;;;;;;;0.40;0.40;;;;;;;2.45;96.23;97038.72;5004470;28;20472;-57
2023/01/30 04:24:19;;;;;;;2.67;2.45;;;;;;;2.65;96.28;97087.31;4991817;28;20556;-55
2023/01/30 04:26:46;;;;;;;0.40;0.40;;;;;;;2.63;97.16;97073.16;4983249;28;20497;-56
2023/01/30 04:29:12;;;;;;;11.15;2.28;;;;;;;2.62;97.29;97082.50;4985380;28;20161;-57
2023/01/30 04:31:39;;;;;;;0.80;0.80;;;;;;;2.07;96.45;96980.28;4984536;28;20093;-58
2023/01/30 04:34:06;;;;;;;3.30;2.05;;;;;;;2.18;94.69;97025.31;4984963;28;20137;-57
2023/01/30 04:36:32;;;;;;;0.60;0.60;;;;;;;2.58;95.50;97082.31;4983045;28;20058;-57
2023/01/30 04:38:59;;;;;;;1.70;1.08;;;;;;;2.06;95.82;97019.63;4984911;28;20082;-55
2023/01/30 04:41:25;;;;;;;0.40;0.40;;;;;;;2.53;96.66;97078.94;4983345;28;20058;-56
2023/01/30 04:43:52;;;;;;;4.00;3.50;;;;;;;2.59;96.88;97077.66;4984830;28;20133;-55
2023/01/30 04:46:19;;;;;;;5.25;1.70;;;;;;;2.45;96.29;97077.00;5000502;28;20092;-56
2023/01/30 04:48:45;;;;;;;0.70;0.70;;;;;;;2.45;96.04;97071.53;5004605;28;20046;-55
2023/01/30 04:51:12;;;;;;;0.93;0.88;;;;;;;2.57;95.44;97074.44;5003998;28;20655;-57
2023/01/30 04:53:38;;;;;;;1.08;1.08;;;;;;;2.62;94.88;97077.84;5002807;28;20046;-57
2023/01/30 04:56:06;;;;;;;0.50;0.50;;;;;;;2.57;95.19;97075.25;5003894;28;20058;-57
2023/01/30 04:58:32;;;;;;;0.40;0.40;;;;;;;2.66;95.74;97092.47;5004680;28;20532;-60
2023/01/30 05:01:12;;;;;;;0.40;0.40;;;;;;;2.56;96.06;97070.09;5002735;28;20053;-54
2023/01/30 05:03:39;;;;;;;1.75;1.17;;;;;;;2.50;96.32;97071.34;5004456;28;20058;-55
2023/01/30 05:06:06;;;;;;;1.52;1.42;;;;;;;2.27;95.59;97009.72;5004044;28;20592;-57
2023/01/30 05:08:33;;;;;;;0.90;0.77;;;;;;;2.57;96.06;97074.44;5004602;28;20394;-55
2023/01/30 05:10:59;;;;;;;0.32;0.32;;;;;;;2.57;96.59;97063.50;5003707;28;20132;-56
2023/01/30 05:13:26;;;;;;;0.40;0.40;;;;;;;2.12;97.79;96996.53;5004110;28;20493;-56
2023/01/30 05:15:52;;;;;;;0.43;0.43;;;;;;;2.68;96.84;97064.81;5003837;28;20141;-57
2023/01/30 05:18:19;;;;;;;4.28;4.03;;;;;;;2.03;96.82;96949.25;5004155;28;20496;-55
2023/01/30 05:20:45;;;;;;;0.60;0.60;;;;;;;2.43;96.84;97024.56;5003791;28;20497;-58
2023/01/30 05:23:12;;;;;;;0.40;0.40;;;;;;;2.82;97.26;97070.94;5002628;28;20056;-55
2023/01/30 05:25:39;;;;;;;4.13;2.58;;;;;;;2.82;96.07;97066.28;5003972;28;20092;-58
2023/01/30 05:28:05;;;;;;;0.50;0.50;;;;;;;2.82;96.28;97070.94;5007791;28;20057;-58
2023/01/30 05:30:32;;;;;;;1.40;0.85;;;;;;;2.33;96.09;96992.88;5007703;28;20081;-57
2023/01/30 05:32:59;;;;;;;3.15;1.70;;;;;;;2.33;95.34;97030.31;5007617;28;20084;-58
2023/01/30 05:35:25;;;;;;;1.30;1.30;;;;;;;2.40;95.45;97058.00;5007601;28;20081;-56
2023/01/30 05:37:52;;;;;;;1.25;1.25;;;;;;;2.48;95.63;97070.88;5007359;28;20057;-56
2023/01/30 05:40:18;;;;;;;1.30;1.00;;;;;;;2.47;96.29;97080.19;5007753;28;20050;-57
2023/01/30 05:42:45;;;;;;;1.55;0.82;;;;;;;2.32;96.14;97053.31;5006175;28;20131;-56
2023/01/30 05:45:12;;;;;;;1.35;0.88;;;;;;;2.45;95.53;97077.78;5006083;28;20050;-58
2023/01/30 05:47:38;;;;;;;0.40;0.40;;;;;;;2.03;95.81;97025.72;5005509;28;20523;-58
2023/01/30 05:50:05;;;;;;;4.82;1.70;;;;;;;1.92;95.63;97002.53;5007244;28;20517;-58
2023/01/30 05:52:32;;;;;;;0.40;0.40;;;;;;;2.31;95.15;97070.84;5007709;28;20079;-55
2023/01/30 05:54:58;;;;;;;1.45;1.35;;;;;;;2.46;95.36;97090.34;5007210;28;20442;-56
2023/01/30 05:57:25;;;;;;;0.43;0.43;;;;;;;2.52;95.73;97093.72;5006950;28;20604;-55
2023/01/30 05:59:51;;;;;;;0.60;0.60;;;;;;;2.50;96.37;97091.31;5007461;28;20061;-55
2023/01/30 06:02:18;;;;;;;0.43;0.43;;;;;;;2.53;96.10;97087.94;5007267;28;20125;-56
2023/01/30 06:04:45;;;;;;;9.32;2.05;;;;;;;2.58;96.14;97089.72;5008537;28;20054;-57
2023/01/30 06:07:13;;;;;;;0.40;0.40;;;;;;;2.26;94.49;97040.91;5006974;28;20046;-57
2023/01/30 06:09:39;;;;;;;0.80;0.80;;;;;;;2.52;94.16;97088.25;5007539;28;20920;-56
2023/01/30 06:12:06;;;;;;;1.00;0.85;;;;;;;2.46;94.10;97111.38;5007028;28;20120;-55
2023/01/30 06:14:33;;;;;;;0.88;0.88;;;;;;;2.20;94.79;97069.50;5007467;28;20054;-54
2023/01/30 06:16:59;;;;;;;0.40;0.40;;;;;;;2.35;94.67;97099.13;5006917;28;20057;-55
2023/01/30 06:19:26;;;;;;;3.33;2.30;;;;;;;2.25;95.91;97096.66;5006771;28;20050;-56
2023/01/30 06:21:53;;;;;;;0.40;0.40;;;;;;;2.21;95.84;97092.97;5006114;28;20082;-57
2023/01/30 06:24:19;;;;;;;2.22;2.13;;;;;;;2.30;96.74;97099.28;5006683;28;20093;-55
2023/01/30 06:26:46;;;;;;;0.47;0.47;;;;;;;2.37;99.00;97091.44;5006234;28;20119;-56
2023/01/30 06:29:13;;;;;;;0.40;0.40;;;;;;;2.46;98.20;97095.00;5005592;28;20227;-56
2023/01/30 06:31:39;;;;;;;1.00;0.77;;;;;;;2.31;96.44;97081.78;5006608;28;20180;-57
2023/01/30 06:34:06;;;;;;;0.40;0.40;;;;;;;1.33;96.60;96925.56;5006671;28;20587;-57
2023/01/30 06:36:33;;;;;;;0.60;0.60;;;;;;;2.15;96.28;97077.84;5006205;28;20049;-56
2023/01/30 06:39:00;;;;;;;0.40;0.40;;;;;;;2.44;96.81;97094.50;5006368;28;20124;-55
2023/01/30 06:41:26;;;;;;;2.33;2.13;;;;;;;2.19;96.71;97078.81;5004611;28;20104;-56
2023/01/30 06:43:54;;;;;;;0.70;0.70;;;;;;;2.29;97.48;97093.00;5006102;28;20599;-58
2023/01/30 06:46:21;;;;;;;0.40;0.40;;;;;;;2.28;96.00;97094.13;5006049;28;20061;-58
2023/01/30 06:48:47;;;;;;;2.33;0.95;;;;;;;2.31;97.02;97098.16;4997451;28;20051;-57
2023/01/30 06:51:14;;;;;;;0.43;0.43;;;;;;;1.66;96.64;97050.78;4986531;28;20054;-56
2023/01/30 06:53:40;;;;;;;0.35;0.35;;;;;;;1.97;96.89;97059.75;4986766;28;20494;-55
2023/01/30 06:56:07;;;;;;;0.70;0.60;;;;;;;2.22;96.80;97105.50;4986346;28;20128;-59
2023/01/30 06:58:34;;;;;;;3.95;0.98;;;;;;;2.21;95.72;97109.38;4993791;28;20116;-56
2023/01/30 07:01:01;;;;;;;0.60;0.60;;;;;;;2.15;95.82;97107.91;5005753;28;20050;-57
2023/01/30 07:03:28;;;;;;;1.23;1.13;;;;;;;2.10;95.84;97118.97;5005516;28;20144;-55
2023/01/30 07:05:54;;;;;;;6.13;2.35;;;;;;;1.11;97.51;96944.69;5001141;28;20058;-54
2023/01/30 07:08:21;;;;;;;7.13;2.95;;;;;;;2.21;96.35;97109.38;4993244;28;20054;-55
2023/01/30 07:10:50;;;;;;;0.40;0.40;;;;;;;2.18;96.41;97104.53;4984405;28;20725;-55
2023/01/30 07:13:16;;;;;;;1.38;1.35;;;;;;;2.10;96.43;97053.41;4995942;28;20049;-56
2023/01/30 07:15:44;;;;;;;0.73;0.73;;;;;;;2.12;94.14;97059.34;5005325;28;20148;-57
2023/01/30 07:18:11;;;;;;;1.60;1.25;;;;;;;2.10;94.00;97039.75;5005001;28;20054;-55
2023/01/30 07:20:38;;;;;;;0.60;0.60;;;;;;;2.57;93.17;97093.56;4997633;28;20074;-56
2023/01/30 07:23:04;;;;;;;0.40;0.40;;;;;;;2.62;91.41;97115.31;4993718;28;20107;-59
2023/01/30 07:25:31;;;;;;;0.40;0.40;;;;;;;2.37;91.43;97091.44;5004455;28;20054;-54
2023/01/30 07:27:59;;;;;;;1.48;1.38;;;;;;;2.61;90.61;97108.22;5004679;28;20108;-55
2023/01/30 07:30:29;;;;;;;1.85;0.95;;;;;;;2.67;90.52;97096.03;4997596;28;20046;-56
2023/01/30 07:32:58;;;;;;;2.67;2.33;;;;;;;2.71;91.86;97086.84;4988244;28;20501;-54
2023/01/30 07:35:27;;;;;;;7.22;2.05;;;;;;;2.27;91.08;97015.19;4999410;28;20076;-56
2023/01/30 07:37:54;;;;;;;0.40;0.40;;;;;;;2.75;90.26;97097.97;5005563;28;20096;-59
2023/01/30 07:40:21;;;;;;;1.50;1.38;;;;;;;2.75;89.79;97103.44;5001394;28;20046;-56
2023/01/30 07:43:01;;;;;;;2.75;1.70;;;;;;;2.75;88.46;97097.97;4988574;28;20107;-57
2023/01/30 07:45:33;;;;;;;0.85;0.85;;;;;;;2.32;88.96;97018.59;4985125;28;20050;-56
2023/01/30 07:48:00;;;;;;;3.40;1.55;;;;;;;2.90;88.85;97090.09;4992101;28;20057;-55
2023/01/30 07:50:26;;;;;;;4.60;2.90;;;;;;;2.90;88.91;97067.41;5001583;28;20141;-57
2023/01/30 07:52:53;;;;;;;0.60;0.60;;;;;;;2.97;87.94;97070.50;5004063;28;20148;-54
2023/01/30 07:55:20;;;;;;;4.38;3.35;;;;;;;3.14;87.56;97084.16;5004315;28;20129;-56
2023/01/30 07:57:46;;;;;;;0.60;0.60;;;;;;;2.43;86.10;96989.03;4997334;28;20050;-58
2023/01/30 08:00:14;;;;;;;0.50;0.50;;;;;;;3.21;86.44;97079.00;4996806;28;20224;-56
2023/01/30 08:02:41;;;;;;;1.95;1.85;;;;;;;3.26;86.51;97089.78;5003425;28;20042;-56
2023/01/30 08:05:08;;;;;;;0.50;0.50;;;;;;;3.46;86.29;97080.94;5003239;28;20476;-56
2023/01/30 08:07:34;;;;;;;0.50;0.50;;;;;;;3.57;86.47;97082.22;4998065;28;20468;-56
2023/01/30 08:10:01;;;;;;;0.88;0.88;;;;;;;3.70;84.82;97073.00;5002782;28;20108;-56
2023/01/30 08:12:28;;;;;;;0.50;0.50;;;;;;;3.52;83.55;97079.66;5002429;28;20437;-55
2023/01/30 08:14:54;;;;;;;1.58;1.30;;;;;;;2.64;83.09;96954.47;5003632;28;20046;-58
2023/01/30 08:17:21;;;;;;;1.55;1.45;;;;;;;3.62;83.17;97128.59;4999867;28;20057;-56
2023/01/30 08:19:48;;;;;;;0.73;0.55;;;;;;;3.66;82.31;97069.31;5000793;28;20057;-56
2023/01/30 08:22:15;;;;;;;2.25;0.82;;;;;;;1.43;81.11;96690.63;4991384;28;20099;-56
2023/01/30 08:24:41;;;;;;;0.60;0.60;;;;;;;3.87;79.30;97077.63;4994033;28;20491;-54
2023/01/30 08:27:08;;;;;;;0.43;0.43;;;;;;;3.55;79.30;97023.41;4985783;28;20050;-57
2023/01/30 08:29:35;;;;;;;0.50;0.50;;;;;;;3.76;79.60;97025.13;5004320;28;20054;-55
2023/01/30 08:32:02;;;;;;;0.70;0.70;;;;;;;4.16;78.91;97073.03;5003073;28;20054;-57
2023/01/30 08:34:28;;;;;;;0.80;0.80;;;;;;;4.36;78.57;97072.28;5001936;28;20473;-57
2023/01/30 08:36:55;;;;;;;3.65;3.38;;;;;;;4.47;75.92;97072.75;4986705;28;20062;-58
2023/01/30 08:39:21;;;;;;;1.45;1.45;;;;;;;4.33;76.68;97040.03;4984251;28;20085;-55
2023/01/30 08:41:48;;;;;;;0.50;0.50;;;;;;;3.96;76.70;97002.50;4982476;28;20050;-55
2023/01/30 08:44:15;;;;;;;0.98;0.98;;;;;;;4.55;77.73;97064.44;4999292;28;20521;-56
2023/01/30 08:46:42;;;;;;;0.50;0.50;;;;;;;3.70;77.15;96889.47;4997528;28;20081;-59
2023/01/30 08:49:10;;;;;;;0.50;0.50;;;;;;;4.63;75.77;97027.94;5003483;28;20524;-59
2023/01/30 08:51:37;;;;;;;1.08;1.02;;;;;;;4.73;74.96;97039.69;5003759;28;20116;-61
2023/01/30 08:54:06;;;;;;;2.45;0.85;;;;;;;4.88;73.90;97050.88;5002041;28;20120;-57
2023/01/30 08:56:33;;;;;;;4.05;3.85;;;;;;;4.91;74.55;97027.44;5002083;28;20506;-60
2023/01/30 08:58:59;;;;;;;27.92;2.25;;;;;;;4.42;73.33;96928.41;4986473;28;20086;-58
2023/01/30 09:01:26;;;;;;;0.50;0.50;;;;;;;5.37;73.94;97024.47;4994344;28;20571;-55
2023/01/30 09:03:53;;;;;;;0.50;0.50;;;;;;;5.28;72.54;96996.28;4998915;28;20076;-56
2023/01/30 09:06:19;;;;;;;35.92;3.53;;;;;;;5.69;69.19;97049.19;4988375;28;20643;-54
2023/01/30 09:08:46;;;;;;;1.65;0.90;;;;;;;4.86;71.02;96898.66;4992951;28;20109;-59
2023/01/30 09:11:13;;;;;;;2.55;0.90;;;;;;;5.14;67.17;96927.13;4991347;28;20293;-56
2023/01/30 09:13:43;;;;;;;9.25;1.27;;;;;;;5.44;67.10;96965.09;5004222;28;20068;-56
2023/01/30 09:16:11;;;;;;;0.60;0.60;;;;;;;5.10;65.89;96902.31;5012016;28;20049;-56
2023/01/30 09:18:39;;;;;;;1.52;1.42;;;;;;;5.85;66.73;97019.13;5013793;28;20076;-57
2023/01/30 09:21:07;;;;;;;0.55;0.55;;;;;;;6.02;68.25;97024.47;5012095;28;20119;-57
2023/01/30 09:23:34;;;;;;;4.20;1.90;;;;;;;6.10;66.21;97007.06;5009129;28;20054;-58
2023/01/30 09:26:01;;;;;;;0.85;0.80;;;;;;;5.96;61.50;96970.81;5008306;28;20119;-57
2023/01/30 09:28:28;;;;;;;14.38;2.60;;;;;;;6.20;62.66;97003.84;5007470;28;20058;-58
2023/01/30 09:30:57;;;;;;;20.60;3.60;;;;;;;6.09;63.17;97003.50;5007080;28;20054;-57
2023/01/30 09:33:24;;;;;;;5.85;3.00;;;;;;;5.28;63.83;96905.66;5005845;28;20081;-55
2023/01/30 09:35:51;;;;;;;0.70;0.70;;;;;;;5.01;62.56;96873.34;5000284;28;20058;-58
2023/01/30 09:38:19;;;;;;;0.70;0.70;;;;;;;5.75;62.58;96997.56;5000031;28;20129;-57
2023/01/30 09:41:14;;;;;;;3.67;3.35;;;;;;;5.74;62.59;96990.44;5006884;28;20143;-58
2023/01/30 09:43:49;;;;;;;0.80;0.80;;;;;;;5.57;63.23;96979.66;5004191;28;20057;-55
2023/01/30 09:46:47;;;;;;;1.30;1.13;;;;;;;5.52;63.02;96971.63;4996370;28;20049;-57
2023/01/30 09:49:44;;;;;;;2.65;1.25;;;;;;;5.71;60.69;96969.16;5004801;28;20433;-61
2023/01/30 09:52:31;;;;;;;0.98;0.98;;;;;;;5.47;61.78;97062.50;5006364;28;20583;-57
2023/01/30 09:55:13;;;;;;;1.45;1.25;;;;;;;5.43;62.20;96965.44;5003875;28;20077;-58
2023/01/30 09:57:40;;;;;;;0.95;0.95;;;;;;;5.52;60.72;96957.88;5003861;28;20157;-59
2023/01/30 10:00:23;;;;;;;1.55;1.45;;;;;;;5.61;60.47;96953.13;5004488;28;20137;-55
2023/01/30 10:03:03;;;;;;;0.80;0.80;;;;;;;3.66;60.50;96642.09;5006361;28;20061;-54
2023/01/30 10:05:39;;;;;;;1.73;1.63;;;;;;;5.34;59.85;96904.31;5006369;28;20064;-58
2023/01/30 10:08:30;;;;;;;2.35;1.52;;;;;;;5.58;60.70;96938.09;5003130;28;20054;-59
2023/01/30 10:11:08;;;;;;;0.60;0.60;;;;;;;5.58;61.01;96916.13;5003513;28;20077;-59
2023/01/30 10:13:58;;;;;;;0.55;0.55;;;;;;;5.82;58.61;96929.13;5003569;28;20515;-59
2023/01/30 10:16:53;;;;;;;2.30;1.58;;;;;;;5.49;56.90;96873.41;4999565;28;20081;-60
2023/01/30 10:20:10;;;;;;;0.90;0.90;;;;;;;5.94;55.92;96918.94;5004541;28;20061;-58
2023/01/30 10:23:01;;;;;;;0.60;0.60;;;;;;;5.94;57.65;96913.44;5003035;28;20058;-56
2023/01/30 10:25:48;;;;;;;1.20;1.15;;;;;;;5.92;55.86;96912.19;4995479;28;20492;-60
2023/01/30 10:28:22;;;;;;;1.13;1.13;;;;;;;6.03;56.60;96899.59;5004102;28;20081;-58
2023/01/30 10:30:54;;;;;;;0.90;0.90;;;;;;;5.84;56.60;96880.94;5001087;28;20061;-59
2023/01/30 10:33:29;;;;;;;0.75;0.70;;;;;;;6.30;54.82;96901.63;5006212;28;20468;-56
2023/01/30 10:36:07;;;;;;;0.60;0.60;;;;;;;6.32;53.97;96858.06;5005839;28;20116;-58
2023/01/30 10:38:46;;;;;;;1.05;0.95;;;;;;;6.46;54.15;96893.44;4997915;28;20553;-59
2023/01/30 10:41:16;;;;;;;1.33;1.33;;;;;;;6.44;53.47;96888.28;4999266;28;20061;-59
2023/01/30 10:44:06;;;;;;;2.30;0.98;;;;;;;6.43;53.95;96870.19;4997717;28;20061;-55
2023/01/30 10:46:39;;;;;;;1.25;1.10;;;;;;;6.37;54.75;96871.56;5006807;28;20406;-59
2023/01/30 10:49:21;;;;;;;0.88;0.88;;;;;;;6.26;55.81;96864.16;5005545;28;20491;-56
2023/01/30 10:52:14;;;;;;;1.15;1.13;;;;;;;6.02;57.21;96772.31;4998195;28;20069;-61
2023/01/30 10:54:51;;;;;;;1.33;1.23;;;;;;;6.58;56.28;96855.69;5006342;28;20116;-57
2023/01/30 10:57:51;;;;;;;1.45;1.45;;;;;;;6.51;57.42;96850.00;5004396;28;20058;-57
2023/01/30 11:00:26;;;;;;;0.70;0.70;;;;;;;6.39;55.93;96847.28;5003430;28;20092;-57
2023/01/30 11:02:59;;;;;;;2.60;2.10;;;;;;;6.01;56.07;96791.91;4999410;28;20092;-58
2023/01/30 11:05:48;;;;;;;11.60;2.25;;;;;;;6.40;56.33;96835.13;4986536;28;20054;-59
2023/01/30 11:08:29;;;;;;;1.80;1.70;;;;;;;6.38;56.11;96823.69;5001483;28;20050;-56
2023/01/30 11:10:57;;;;;;;1.48;1.15;;;;;;;6.48;56.48;96823.16;5000306;28;20053;-58
2023/01/30 11:13:29;;;;;;;3.63;3.33;;;;;;;5.99;55.91;96783.22;5004897;28;20053;-55
2023/01/30 11:16:02;;;;;;;0.60;0.60;;;;;;;6.30;57.12;96810.84;5005491;28;20144;-57
2023/01/30 11:18:29;;;;;;;1.27;1.17;;;;;;;6.28;56.00;96791.16;4998846;28;20058;-56
2023/01/30 11:21:24;;;;;;;1.48;1.48;;;;;;;6.40;53.75;96793.06;4992853;28;20167;-60
2023/01/30 11:24:15;;;;;;;0.60;0.60;;;;;;;5.52;53.67;96719.72;5003181;28;20380;-59
2023/01/30 11:26:43;;;;;;;0.55;0.55;;;;;;;6.24;53.94;96790.25;4991846;28;20111;-57
2023/01/30 11:29:36;;;;;;;0.60;0.60;;;;;;;3.92;53.55;96392.56;5000579;28;20136;-59
2023/01/30 11:32:10;;;;;;;0.63;0.63;;;;;;;6.05;52.29;96699.34;5005568;28;20116;-57
2023/01/30 11:34:37;;;;;;;0.60;0.60;;;;;;;6.02;52.72;96683.56;5015358;28;20084;-62
2023/01/30 11:37:26;;;;;;;0.70;0.70;;;;;;;6.56;52.84;96769.94;5009233;28;20054;-57
2023/01/30 11:39:53;;;;;;;5.00;1.92;;;;;;;6.45;54.01;96768.06;5005599;28;20050;-60
2023/01/30 11:42:26;;;;;;;1.35;1.35;;;;;;;6.23;53.17;96766.63;5001563;28;20127;-59
2023/01/30 11:44:58;;;;;;;21.92;8.73;;;;;;;5.75;52.41;96714.53;5015142;28;20053;-58
2023/01/30 11:48:02;;;;;;;2.15;1.23;;;;;;;5.86;53.67;96740.41;5017334;28;20073;-60
2023/01/30 11:50:39;;;;;;;1.48;1.38;;;;;;;5.85;53.03;96753.34;4996820;28;20137;-59
2023/01/30 11:53:43;;;;;;;2.55;1.60;;;;;;;5.63;52.93;96731.84;4995199;28;20181;-57
2023/01/30 11:56:15;;;;;;;0.68;0.68;;;;;;;5.76;53.24;96735.34;5015350;28;20073;-57
2023/01/30 11:58:48;;;;;;;2.38;1.80;;;;;;;5.47;53.63;96695.22;5008660;28;20104;-61
2023/01/30 12:01:16;;;;;;;4.45;3.08;;;;;;;5.65;51.55;96734.22;4986258;28;20108;-56
2023/01/30 12:03:53;;;;;;;0.85;0.85;;;;;;;5.57;52.31;96726.91;4990221;28;20070;-56
2023/01/30 12:06:29;;;;;;;0.82;0.82;;;;;;;5.63;52.50;96714.53;4984969;28;20660;-57
2023/01/30 12:08:56;;;;;;;0.60;0.60;;;;;;;5.47;52.19;96673.25;5021177;28;20046;-56